Bunker, Washington
Current Conditions -  °F | °C
As of 2:15 PM on Sunday 21 Dec 2014 (Local Time) from KCLS Reporting Station
Broken Clouds Broken Clouds  
Wind Chill: 13°   Ceiling: 6500
Heat Index: 13°   Visibility: 10mi
Dew Point: 10°   Wind: 3mph
Humidity: 82%   Direction: NA
Pressure: 30.03"   Gusts: NA
Location:  46.6561°N, 122.993°W
Report Text: KCLS 212215Z AUTO VRB03KT 10SM FEW023 SCT055 BKN065 13/10 A3003 RMK AO2
Loading
Personal Weather Stations






























Interactive Weather Map New forecast layout! Learn more

10-Day Weather Forecast

Advertisements
Track Severe Weather on mobile